sensor_id;sensor_type;location;lat;lon;timestamp;temperature;humidity
65046;DHT22;54657;52.022;5.534;2022-09-09T00:01:54;17.60;73.40
65046;DHT22;54657;52.022;5.534;2022-09-09T00:04:33;17.60;73.60
65046;DHT22;54657;52.022;5.534;2022-09-09T00:07:21;17.60;74.00
65046;DHT22;54657;52.022;5.534;2022-09-09T00:13:15;17.60;74.30
65046;DHT22;54657;52.022;5.534;2022-09-09T00:16:02;17.50;73.90
65046;DHT22;54657;52.022;5.534;2022-09-09T00:18:50;17.50;74.50
65046;DHT22;54657;52.022;5.534;2022-09-09T00:21:18;17.50;74.20
65046;DHT22;54657;52.022;5.534;2022-09-09T00:23:54;17.50;73.90
65046;DHT22;54657;52.022;5.534;2022-09-09T00:26:40;17.50;74.50
65046;DHT22;54657;52.022;5.534;2022-09-09T00:31:39;17.40;74.30
65046;DHT22;54657;52.022;5.534;2022-09-09T00:34:21;17.40;73.80
65046;DHT22;54657;52.022;5.534;2022-09-09T00:36:50;17.50;75.30
65046;DHT22;54657;52.022;5.534;2022-09-09T00:39:40;17.40;74.10
65046;DHT22;54657;52.022;5.534;2022-09-09T00:47:36;17.20;74.70
65046;DHT22;54657;52.022;5.534;2022-09-09T00:58:30;17.10;76.30
65046;DHT22;54657;52.022;5.534;2022-09-09T01:01:06;17.00;74.80
65046;DHT22;54657;52.022;5.534;2022-09-09T01:03:53;17.10;75.30
65046;DHT22;54657;52.022;5.534;2022-09-09T01:06:35;17.00;75.80
65046;DHT22;54657;52.022;5.534;2022-09-09T01:22:37;17.00;74.80
65046;DHT22;54657;52.022;5.534;2022-09-09T01:27:40;16.90;75.20
65046;DHT22;54657;52.022;5.534;2022-09-09T01:30:11;16.90;74.80
65046;DHT22;54657;52.022;5.534;2022-09-09T01:32:46;16.90;75.10
65046;DHT22;54657;52.022;5.534;2022-09-09T01:37:50;17.00;75.20
65046;DHT22;54657;52.022;5.534;2022-09-09T01:40:16;16.90;74.50
65046;DHT22;54657;52.022;5.534;2022-09-09T01:42:41;16.90;74.40
65046;DHT22;54657;52.022;5.534;2022-09-09T01:45:07;17.00;74.40
65046;DHT22;54657;52.022;5.534;2022-09-09T01:47:33;16.90;74.30
65046;DHT22;54657;52.022;5.534;2022-09-09T01:49:59;17.00;74.30
65046;DHT22;54657;52.022;5.534;2022-09-09T01:52:26;17.00;74.10
65046;DHT22;54657;52.022;5.534;2022-09-09T01:54:52;17.00;74.20
65046;DHT22;54657;52.022;5.534;2022-09-09T01:57:56;17.00;74.20
65046;DHT22;54657;52.022;5.534;2022-09-09T02:00:28;17.00;75.10
65046;DHT22;54657;52.022;5.534;2022-09-09T02:03:20;17.00;74.30
65046;DHT22;54657;52.022;5.534;2022-09-09T02:06:45;17.00;75.10
65046;DHT22;54657;52.022;5.534;2022-09-09T02:08:55;17.00;74.70
65046;DHT22;54657;52.022;5.534;2022-09-09T02:11:24;16.90;74.50
65046;DHT22;54657;52.022;5.534;2022-09-09T02:13:54;16.90;74.50
65046;DHT22;54657;52.022;5.534;2022-09-09T02:19:18;16.90;75.00
65046;DHT22;54657;52.022;5.534;2022-09-09T02:21:52;16.90;74.80
65046;DHT22;54657;52.022;5.534;2022-09-09T02:24:19;16.90;74.40
65046;DHT22;54657;52.022;5.534;2022-09-09T02:26:46;16.90;74.50
65046;DHT22;54657;52.022;5.534;2022-09-09T02:29:23;16.90;74.50
65046;DHT22;54657;52.022;5.534;2022-09-09T02:31:51;16.90;74.70
65046;DHT22;54657;52.022;5.534;2022-09-09T02:34:20;16.90;74.40
65046;DHT22;54657;52.022;5.534;2022-09-09T02:36:48;16.90;74.40
65046;DHT22;54657;52.022;5.534;2022-09-09T02:39:14;16.90;74.40
65046;DHT22;54657;52.022;5.534;2022-09-09T02:41:41;16.90;74.60
65046;DHT22;54657;52.022;5.534;2022-09-09T02:44:15;16.90;74.60
65046;DHT22;54657;52.022;5.534;2022-09-09T02:52:07;16.90;74.80
65046;DHT22;54657;52.022;5.534;2022-09-09T02:54:35;16.90;74.60
65046;DHT22;54657;52.022;5.534;2022-09-09T02:59:44;16.80;74.70
65046;DHT22;54657;52.022;5.534;2022-09-09T03:02:11;16.80;74.70
65046;DHT22;54657;52.022;5.534;2022-09-09T03:04:38;16.80;74.90
65046;DHT22;54657;52.022;5.534;2022-09-09T03:07:04;16.70;75.00
65046;DHT22;54657;52.022;5.534;2022-09-09T03:09:31;16.70;75.10
65046;DHT22;54657;52.022;5.534;2022-09-09T03:11:58;16.70;75.10
65046;DHT22;54657;52.022;5.534;2022-09-09T03:14:24;16.70;75.20
65046;DHT22;54657;52.022;5.534;2022-09-09T03:16:53;16.70;75.10
65046;DHT22;54657;52.022;5.534;2022-09-09T03:19:19;16.70;74.90
65046;DHT22;54657;52.022;5.534;2022-09-09T03:21:48;16.70;75.00
65046;DHT22;54657;52.022;5.534;2022-09-09T03:24:15;16.70;75.00
65046;DHT22;54657;52.022;5.534;2022-09-09T03:26:41;16.70;74.90
65046;DHT22;54657;52.022;5.534;2022-09-09T03:29:07;16.70;75.00
65046;DHT22;54657;52.022;5.534;2022-09-09T03:31:35;16.70;75.10
65046;DHT22;54657;52.022;5.534;2022-09-09T03:34:02;16.70;75.10
65046;DHT22;54657;52.022;5.534;2022-09-09T03:36:28;16.60;75.20
65046;DHT22;54657;52.022;5.534;2022-09-09T03:38:54;16.70;75.30
65046;DHT22;54657;52.022;5.534;2022-09-09T03:41:21;16.70;75.10
65046;DHT22;54657;52.022;5.534;2022-09-09T03:43:52;16.70;75.10
65046;DHT22;54657;52.022;5.534;2022-09-09T03:46:19;16.70;75.10
65046;DHT22;54657;52.022;5.534;2022-09-09T03:48:45;16.70;75.10
65046;DHT22;54657;52.022;5.534;2022-09-09T03:51:10;16.60;75.30
65046;DHT22;54657;52.022;5.534;2022-09-09T03:53:36;16.60;75.30
65046;DHT22;54657;52.022;5.534;2022-09-09T03:56:04;16.60;75.30
65046;DHT22;54657;52.022;5.534;2022-09-09T03:58:33;16.60;75.30
65046;DHT22;54657;52.022;5.534;2022-09-09T04:01:04;16.60;75.20
65046;DHT22;54657;52.022;5.534;2022-09-09T04:03:30;16.60;75.70
65046;DHT22;54657;52.022;5.534;2022-09-09T04:05:58;16.60;75.40
65046;DHT22;54657;52.022;5.534;2022-09-09T04:08:24;16.60;75.50
65046;DHT22;54657;52.022;5.534;2022-09-09T04:10:54;16.50;75.60
65046;DHT22;54657;52.022;5.534;2022-09-09T04:13:23;16.50;75.70
65046;DHT22;54657;52.022;5.534;2022-09-09T04:15:54;16.50;75.60
65046;DHT22;54657;52.022;5.534;2022-09-09T04:18:20;16.50;75.80
65046;DHT22;54657;52.022;5.534;2022-09-09T04:20:51;16.50;75.60
65046;DHT22;54657;52.022;5.534;2022-09-09T04:23:17;16.50;75.90
65046;DHT22;54657;52.022;5.534;2022-09-09T04:25:48;16.50;75.90
65046;DHT22;54657;52.022;5.534;2022-09-09T04:28:15;16.50;75.90
65046;DHT22;54657;52.022;5.534;2022-09-09T04:30:41;16.50;75.80
65046;DHT22;54657;52.022;5.534;2022-09-09T04:33:07;16.50;75.80
65046;DHT22;54657;52.022;5.534;2022-09-09T04:35:35;16.50;76.00
65046;DHT22;54657;52.022;5.534;2022-09-09T04:38:00;16.50;75.80
65046;DHT22;54657;52.022;5.534;2022-09-09T04:40:28;16.50;75.80
65046;DHT22;54657;52.022;5.534;2022-09-09T04:42:55;16.60;75.70
65046;DHT22;54657;52.022;5.534;2022-09-09T04:45:20;16.60;75.60
65046;DHT22;54657;52.022;5.534;2022-09-09T04:47:46;16.50;75.80
65046;DHT22;54657;52.022;5.534;2022-09-09T04:50:11;16.50;75.90
65046;DHT22;54657;52.022;5.534;2022-09-09T04:52:37;16.50;75.90
65046;DHT22;54657;52.022;5.534;2022-09-09T04:55:03;16.50;76.00
65046;DHT22;54657;52.022;5.534;2022-09-09T04:57:29;16.40;76.00
65046;DHT22;54657;52.022;5.534;2022-09-09T04:59:57;16.40;76.10
65046;DHT22;54657;52.022;5.534;2022-09-09T05:02:23;16.40;76.30
65046;DHT22;54657;52.022;5.534;2022-09-09T05:04:48;16.40;76.10
65046;DHT22;54657;52.022;5.534;2022-09-09T05:07:15;16.50;76.00
65046;DHT22;54657;52.022;5.534;2022-09-09T05:09:40;16.50;76.10
65046;DHT22;54657;52.022;5.534;2022-09-09T05:12:06;16.50;76.20
65046;DHT22;54657;52.022;5.534;2022-09-09T05:14:31;16.50;76.10
65046;DHT22;54657;52.022;5.534;2022-09-09T05:16:57;16.50;76.00
65046;DHT22;54657;52.022;5.534;2022-09-09T05:19:23;16.50;76.80
65046;DHT22;54657;52.022;5.534;2022-09-09T05:21:49;16.50;76.50
65046;DHT22;54657;52.022;5.534;2022-09-09T05:24:15;16.50;76.40
65046;DHT22;54657;52.022;5.534;2022-09-09T05:26:42;16.50;76.30
65046;DHT22;54657;52.022;5.534;2022-09-09T05:29:08;16.50;76.40
65046;DHT22;54657;52.022;5.534;2022-09-09T05:31:34;16.50;76.70
65046;DHT22;54657;52.022;5.534;2022-09-09T05:33:59;16.40;76.90
65046;DHT22;54657;52.022;5.534;2022-09-09T05:36:25;16.40;76.80
65046;DHT22;54657;52.022;5.534;2022-09-09T05:38:51;16.40;76.90
65046;DHT22;54657;52.022;5.534;2022-09-09T05:41:19;16.40;77.10
65046;DHT22;54657;52.022;5.534;2022-09-09T05:43:45;16.40;77.00
65046;DHT22;54657;52.022;5.534;2022-09-09T05:46:17;16.50;77.30
65046;DHT22;54657;52.022;5.534;2022-09-09T05:48:45;16.40;77.40
65046;DHT22;54657;52.022;5.534;2022-09-09T05:51:19;16.40;77.30
65046;DHT22;54657;52.022;5.534;2022-09-09T05:53:47;16.40;80.00
65046;DHT22;54657;52.022;5.534;2022-09-09T05:56:18;16.40;77.40
65046;DHT22;54657;52.022;5.534;2022-09-09T05:58:44;16.50;77.90
65046;DHT22;54657;52.022;5.534;2022-09-09T06:01:17;16.50;77.40
65046;DHT22;54657;52.022;5.534;2022-09-09T06:03:44;16.60;77.50
65046;DHT22;54657;52.022;5.534;2022-09-09T06:06:14;16.60;77.60
65046;DHT22;54657;52.022;5.534;2022-09-09T06:08:42;16.60;77.80
65046;DHT22;54657;52.022;5.534;2022-09-09T06:11:21;16.60;77.70
65046;DHT22;54657;52.022;5.534;2022-09-09T06:13:47;16.70;78.40
65046;DHT22;54657;52.022;5.534;2022-09-09T06:16:17;16.70;77.40
65046;DHT22;54657;52.022;5.534;2022-09-09T06:18:43;16.80;77.80
65046;DHT22;54657;52.022;5.534;2022-09-09T06:21:15;16.70;77.60
65046;DHT22;54657;52.022;5.534;2022-09-09T06:23:41;16.80;77.80
65046;DHT22;54657;52.022;5.534;2022-09-09T06:26:14;16.90;77.60
65046;DHT22;54657;52.022;5.534;2022-09-09T06:28:40;16.90;77.70
65046;DHT22;54657;52.022;5.534;2022-09-09T06:31:10;16.90;77.80
65046;DHT22;54657;52.022;5.534;2022-09-09T06:33:38;16.90;77.50
65046;DHT22;54657;52.022;5.534;2022-09-09T06:36:07;17.00;77.60
65046;DHT22;54657;52.022;5.534;2022-09-09T06:38:35;17.00;77.20
65046;DHT22;54657;52.022;5.534;2022-09-09T06:41:00;17.10;77.40
65046;DHT22;54657;52.022;5.534;2022-09-09T06:43:27;17.00;78.20
65046;DHT22;54657;52.022;5.534;2022-09-09T06:46:01;17.00;77.60
65046;DHT22;54657;52.022;5.534;2022-09-09T06:48:28;17.10;78.30
65046;DHT22;54657;52.022;5.534;2022-09-09T06:51:04;17.10;78.00
65046;DHT22;54657;52.022;5.534;2022-09-09T06:53:31;17.10;78.40
65046;DHT22;54657;52.022;5.534;2022-09-09T06:56:21;17.20;77.60
65046;DHT22;54657;52.022;5.534;2022-09-09T06:58:46;17.20;77.60
65046;DHT22;54657;52.022;5.534;2022-09-09T07:01:14;17.20;77.60
65046;DHT22;54657;52.022;5.534;2022-09-09T07:03:41;17.20;78.00
65046;DHT22;54657;52.022;5.534;2022-09-09T07:06:09;17.30;77.70
65046;DHT22;54657;52.022;5.534;2022-09-09T07:08:39;17.40;77.70
65046;DHT22;54657;52.022;5.534;2022-09-09T07:11:06;17.40;77.90
65046;DHT22;54657;52.022;5.534;2022-09-09T07:13:32;17.50;77.80
65046;DHT22;54657;52.022;5.534;2022-09-09T07:18:31;17.60;78.40
65046;DHT22;54657;52.022;5.534;2022-09-09T07:20:56;17.60;77.50
65046;DHT22;54657;52.022;5.534;2022-09-09T07:23:23;17.70;77.80
65046;DHT22;54657;52.022;5.534;2022-09-09T07:25:49;17.70;77.60
65046;DHT22;54657;52.022;5.534;2022-09-09T07:28:15;17.80;77.40
65046;DHT22;54657;52.022;5.534;2022-09-09T07:30:41;17.80;77.50
65046;DHT22;54657;52.022;5.534;2022-09-09T07:33:08;17.90;77.50
65046;DHT22;54657;52.022;5.534;2022-09-09T07:35:35;17.90;77.60
65046;DHT22;54657;52.022;5.534;2022-09-09T07:38:02;17.90;77.20
65046;DHT22;54657;52.022;5.534;2022-09-09T07:40:28;17.90;77.20
65046;DHT22;54657;52.022;5.534;2022-09-09T07:42:55;17.90;77.30
65046;DHT22;54657;52.022;5.534;2022-09-09T07:45:21;17.90;77.40
65046;DHT22;54657;52.022;5.534;2022-09-09T07:47:47;17.90;77.40
65046;DHT22;54657;52.022;5.534;2022-09-09T07:50:14;18.00;77.10
65046;DHT22;54657;52.022;5.534;2022-09-09T07:52:40;18.00;76.90
65046;DHT22;54657;52.022;5.534;2022-09-09T07:55:06;18.00;76.80
65046;DHT22;54657;52.022;5.534;2022-09-09T07:57:32;18.00;76.80
65046;DHT22;54657;52.022;5.534;2022-09-09T07:59:57;18.00;77.00
65046;DHT22;54657;52.022;5.534;2022-09-09T08:02:24;18.00;76.80
65046;DHT22;54657;52.022;5.534;2022-09-09T08:04:50;18.00;76.80
65046;DHT22;54657;52.022;5.534;2022-09-09T08:07:17;18.00;76.80
65046;DHT22;54657;52.022;5.534;2022-09-09T08:09:42;18.00;76.60
65046;DHT22;54657;52.022;5.534;2022-09-09T08:12:09;18.00;76.80
65046;DHT22;54657;52.022;5.534;2022-09-09T08:14:36;18.00;76.60
65046;DHT22;54657;52.022;5.534;2022-09-09T08:17:02;18.00;76.80
65046;DHT22;54657;52.022;5.534;2022-09-09T08:19:27;18.00;76.80
65046;DHT22;54657;52.022;5.534;2022-09-09T08:21:55;18.00;76.80
65046;DHT22;54657;52.022;5.534;2022-09-09T08:24:23;18.10;77.30
65046;DHT22;54657;52.022;5.534;2022-09-09T08:26:49;18.20;76.60
65046;DHT22;54657;52.022;5.534;2022-09-09T08:29:15;18.20;76.40
65046;DHT22;54657;52.022;5.534;2022-09-09T08:31:52;18.30;76.20
65046;DHT22;54657;52.022;5.534;2022-09-09T08:34:19;18.30;76.30
65046;DHT22;54657;52.022;5.534;2022-09-09T08:36:47;18.30;76.10
65046;DHT22;54657;52.022;5.534;2022-09-09T08:39:17;18.30;76.10
65046;DHT22;54657;52.022;5.534;2022-09-09T08:42:04;18.30;76.10
65046;DHT22;54657;52.022;5.534;2022-09-09T08:47:26;18.30;75.90
65046;DHT22;54657;52.022;5.534;2022-09-09T08:50:17;18.30;75.80
65046;DHT22;54657;52.022;5.534;2022-09-09T08:58:17;18.40;76.20
65046;DHT22;54657;52.022;5.534;2022-09-09T09:11:56;18.40;75.30
65046;DHT22;54657;52.022;5.534;2022-09-09T09:14:30;18.40;75.30
65046;DHT22;54657;52.022;5.534;2022-09-09T09:19:26;18.40;75.20
65046;DHT22;54657;52.022;5.534;2022-09-09T09:24:31;18.50;75.10
65046;DHT22;54657;52.022;5.534;2022-09-09T09:27:18;18.40;74.80
65046;DHT22;54657;52.022;5.534;2022-09-09T09:29:48;18.50;74.90
65046;DHT22;54657;52.022;5.534;2022-09-09T09:32:18;18.50;74.70
65046;DHT22;54657;52.022;5.534;2022-09-09T09:34:55;18.60;74.70
65046;DHT22;54657;52.022;5.534;2022-09-09T09:37:29;18.60;74.60
65046;DHT22;54657;52.022;5.534;2022-09-09T09:39:55;18.60;74.40
65046;DHT22;54657;52.022;5.534;2022-09-09T09:42:21;18.60;74.30
65046;DHT22;54657;52.022;5.534;2022-09-09T09:44:46;18.60;74.40
65046;DHT22;54657;52.022;5.534;2022-09-09T09:49:37;18.70;74.90
65046;DHT22;54657;52.022;5.534;2022-09-09T09:52:04;18.70;74.30
65046;DHT22;54657;52.022;5.534;2022-09-09T09:54:33;18.80;74.30
65046;DHT22;54657;52.022;5.534;2022-09-09T09:57:14;18.80;74.20
65046;DHT22;54657;52.022;5.534;2022-09-09T09:59:41;18.80;74.30
65046;DHT22;54657;52.022;5.534;2022-09-09T10:02:18;18.70;74.10
65046;DHT22;54657;52.022;5.534;2022-09-09T10:04:45;18.80;74.30
65046;DHT22;54657;52.022;5.534;2022-09-09T10:07:21;18.80;74.10
65046;DHT22;54657;52.022;5.534;2022-09-09T10:09:55;18.80;74.00
65046;DHT22;54657;52.022;5.534;2022-09-09T10:18:04;18.80;73.40
65046;DHT22;54657;52.022;5.534;2022-09-09T10:31:16;18.80;73.40
65046;DHT22;54657;52.022;5.534;2022-09-09T10:36:26;18.70;74.20
65046;DHT22;54657;52.022;5.534;2022-09-09T10:52:32;18.20;78.50
65046;DHT22;54657;52.022;5.534;2022-09-09T10:57:46;18.30;77.80
65046;DHT22;54657;52.022;5.534;2022-09-09T11:00:20;18.30;78.00
65046;DHT22;54657;52.022;5.534;2022-09-09T11:03:02;18.30;77.80
65046;DHT22;54657;52.022;5.534;2022-09-09T11:08:18;18.50;77.80
65046;DHT22;54657;52.022;5.534;2022-09-09T11:11:13;18.70;77.90
65046;DHT22;54657;52.022;5.534;2022-09-09T11:13:52;18.90;78.10
65046;DHT22;54657;52.022;5.534;2022-09-09T11:18:47;18.90;77.00
65046;DHT22;54657;52.022;5.534;2022-09-09T11:21:24;18.90;77.00
65046;DHT22;54657;52.022;5.534;2022-09-09T11:24:04;18.80;77.50
65046;DHT22;54657;52.022;5.534;2022-09-09T11:26:47;18.80;77.30
65046;DHT22;54657;52.022;5.534;2022-09-09T11:37:37;19.00;77.30
65046;DHT22;54657;52.022;5.534;2022-09-09T11:40:14;19.10;77.30
65046;DHT22;54657;52.022;5.534;2022-09-09T11:42:40;19.20;76.90
65046;DHT22;54657;52.022;5.534;2022-09-09T11:45:19;19.10;76.70
65046;DHT22;54657;52.022;5.534;2022-09-09T11:47:57;19.10;77.00
65046;DHT22;54657;52.022;5.534;2022-09-09T11:52:49;19.10;77.10
65046;DHT22;54657;52.022;5.534;2022-09-09T11:55:33;19.10;77.30
65046;DHT22;54657;52.022;5.534;2022-09-09T12:03:04;19.10;76.90
65046;DHT22;54657;52.022;5.534;2022-09-09T12:05:39;19.20;76.90
65046;DHT22;54657;52.022;5.534;2022-09-09T12:08:07;19.20;77.80
65046;DHT22;54657;52.022;5.534;2022-09-09T12:10:38;19.00;76.90
65046;DHT22;54657;52.022;5.534;2022-09-09T12:13:20;19.10;76.70
65046;DHT22;54657;52.022;5.534;2022-09-09T12:15:51;18.90;76.90
65046;DHT22;54657;52.022;5.534;2022-09-09T12:18:36;18.80;77.60
65046;DHT22;54657;52.022;5.534;2022-09-09T12:26:40;18.80;78.10
65046;DHT22;54657;52.022;5.534;2022-09-09T12:32:00;18.80;77.90
65046;DHT22;54657;52.022;5.534;2022-09-09T12:39:56;18.90;77.30
65046;DHT22;54657;52.022;5.534;2022-09-09T12:42:23;19.00;76.90
65046;DHT22;54657;52.022;5.534;2022-09-09T12:45:02;18.90;76.70
65046;DHT22;54657;52.022;5.534;2022-09-09T12:47:42;19.00;77.20
65046;DHT22;54657;52.022;5.534;2022-09-09T12:50:26;19.00;77.50
65046;DHT22;54657;52.022;5.534;2022-09-09T12:52:58;19.00;77.90
65046;DHT22;54657;52.022;5.534;2022-09-09T12:55:28;19.00;77.10
65046;DHT22;54657;52.022;5.534;2022-09-09T12:57:55;19.00;77.30
65046;DHT22;54657;52.022;5.534;2022-09-09T13:00:23;18.90;76.80
65046;DHT22;54657;52.022;5.534;2022-09-09T13:02:54;18.80;76.80
65046;DHT22;54657;52.022;5.534;2022-09-09T13:05:26;18.90;77.40
65046;DHT22;54657;52.022;5.534;2022-09-09T13:08:00;19.00;76.90
65046;DHT22;54657;52.022;5.534;2022-09-09T13:10:29;18.90;76.90
65046;DHT22;54657;52.022;5.534;2022-09-09T13:12:57;18.90;76.80
65046;DHT22;54657;52.022;5.534;2022-09-09T13:15:26;19.00;76.70
65046;DHT22;54657;52.022;5.534;2022-09-09T13:17:59;19.00;76.60
65046;DHT22;54657;52.022;5.534;2022-09-09T13:20:26;19.00;76.30
65046;DHT22;54657;52.022;5.534;2022-09-09T13:22:54;19.00;76.10
65046;DHT22;54657;52.022;5.534;2022-09-09T13:25:26;19.00;76.20
65046;DHT22;54657;52.022;5.534;2022-09-09T13:28:03;19.10;76.30
65046;DHT22;54657;52.022;5.534;2022-09-09T13:30:30;19.10;76.30
65046;DHT22;54657;52.022;5.534;2022-09-09T13:33:03;19.10;76.10
65046;DHT22;54657;52.022;5.534;2022-09-09T13:35:29;19.20;76.10
65046;DHT22;54657;52.022;5.534;2022-09-09T13:37:55;19.20;75.80
65046;DHT22;54657;52.022;5.534;2022-09-09T13:40:22;19.30;75.80
65046;DHT22;54657;52.022;5.534;2022-09-09T13:42:52;19.40;75.70
65046;DHT22;54657;52.022;5.534;2022-09-09T13:45:21;19.40;75.60
65046;DHT22;54657;52.022;5.534;2022-09-09T13:47:47;19.50;75.50
65046;DHT22;54657;52.022;5.534;2022-09-09T13:50:28;19.50;75.20
65046;DHT22;54657;52.022;5.534;2022-09-09T13:52:58;19.60;75.10
65046;DHT22;54657;52.022;5.534;2022-09-09T13:55:28;19.50;75.00
65046;DHT22;54657;52.022;5.534;2022-09-09T13:58:01;19.50;75.00
65046;DHT22;54657;52.022;5.534;2022-09-09T14:00:30;19.50;75.00
65046;DHT22;54657;52.022;5.534;2022-09-09T14:02:56;19.50;74.80
65046;DHT22;54657;52.022;5.534;2022-09-09T14:05:22;19.60;74.80
65046;DHT22;54657;52.022;5.534;2022-09-09T14:07:48;19.60;74.70
65046;DHT22;54657;52.022;5.534;2022-09-09T14:10:14;19.60;74.50
65046;DHT22;54657;52.022;5.534;2022-09-09T14:12:40;19.60;74.40
65046;DHT22;54657;52.022;5.534;2022-09-09T14:15:06;19.60;74.50
65046;DHT22;54657;52.022;5.534;2022-09-09T14:17:33;19.70;74.50
65046;DHT22;54657;52.022;5.534;2022-09-09T14:19:59;19.70;74.50
65046;DHT22;54657;52.022;5.534;2022-09-09T14:22:25;19.80;74.50
65046;DHT22;54657;52.022;5.534;2022-09-09T14:24:51;19.90;74.30
65046;DHT22;54657;52.022;5.534;2022-09-09T14:27:17;19.90;74.30
65046;DHT22;54657;52.022;5.534;2022-09-09T14:29:44;20.10;74.30
65046;DHT22;54657;52.022;5.534;2022-09-09T14:32:10;20.10;74.10
65046;DHT22;54657;52.022;5.534;2022-09-09T14:34:35;20.20;74.10
65046;DHT22;54657;52.022;5.534;2022-09-09T14:37:01;20.20;73.90
65046;DHT22;54657;52.022;5.534;2022-09-09T14:39:27;20.30;73.80
65046;DHT22;54657;52.022;5.534;2022-09-09T14:41:53;20.30;73.80
65046;DHT22;54657;52.022;5.534;2022-09-09T14:44:18;20.40;73.60
65046;DHT22;54657;52.022;5.534;2022-09-09T14:46:44;20.50;73.60
65046;DHT22;54657;52.022;5.534;2022-09-09T14:49:09;20.50;73.60
65046;DHT22;54657;52.022;5.534;2022-09-09T14:51:38;20.60;73.50
65046;DHT22;54657;52.022;5.534;2022-09-09T14:54:04;20.70;73.40
65046;DHT22;54657;52.022;5.534;2022-09-09T14:56:31;20.80;73.10
65046;DHT22;54657;52.022;5.534;2022-09-09T14:58:58;20.80;72.40
65046;DHT22;54657;52.022;5.534;2022-09-09T15:01:26;20.90;72.70
65046;DHT22;54657;52.022;5.534;2022-09-09T15:04:02;20.90;72.50
65046;DHT22;54657;52.022;5.534;2022-09-09T15:06:32;21.00;72.50
65046;DHT22;54657;52.022;5.534;2022-09-09T15:09:03;20.90;72.50
65046;DHT22;54657;52.022;5.534;2022-09-09T15:11:31;20.90;72.60
65046;DHT22;54657;52.022;5.534;2022-09-09T15:13:58;20.90;72.60
65046;DHT22;54657;52.022;5.534;2022-09-09T15:16:26;20.90;72.40
65046;DHT22;54657;52.022;5.534;2022-09-09T15:18:54;20.90;72.30
65046;DHT22;54657;52.022;5.534;2022-09-09T15:21:22;20.90;72.20
65046;DHT22;54657;52.022;5.534;2022-09-09T15:23:48;20.90;72.20
65046;DHT22;54657;52.022;5.534;2022-09-09T15:26:15;20.90;72.20
65046;DHT22;54657;52.022;5.534;2022-09-09T15:28:42;20.80;72.00
65046;DHT22;54657;52.022;5.534;2022-09-09T15:31:29;20.80;72.30
65046;DHT22;54657;52.022;5.534;2022-09-09T15:33:57;20.70;71.00
65046;DHT22;54657;52.022;5.534;2022-09-09T15:36:28;20.60;72.50
65046;DHT22;54657;52.022;5.534;2022-09-09T15:38:54;20.60;72.70
65046;DHT22;54657;52.022;5.534;2022-09-09T15:41:21;20.60;72.70
65046;DHT22;54657;52.022;5.534;2022-09-09T15:43:52;20.60;72.50
65046;DHT22;54657;52.022;5.534;2022-09-09T15:48:54;20.70;72.30
65046;DHT22;54657;52.022;5.534;2022-09-09T15:51:21;20.70;72.00
65046;DHT22;54657;52.022;5.534;2022-09-09T15:53:48;20.60;72.00
65046;DHT22;54657;52.022;5.534;2022-09-09T15:56:13;20.70;71.50
65046;DHT22;54657;52.022;5.534;2022-09-09T15:58:39;20.70;71.30
65046;DHT22;54657;52.022;5.534;2022-09-09T16:01:09;20.70;71.30
65046;DHT22;54657;52.022;5.534;2022-09-09T16:03:37;20.50;70.60
65046;DHT22;54657;52.022;5.534;2022-09-09T16:06:03;20.50;71.00
65046;DHT22;54657;52.022;5.534;2022-09-09T16:08:44;20.40;70.60
65046;DHT22;54657;52.022;5.534;2022-09-09T16:11:13;20.30;70.60
65046;DHT22;54657;52.022;5.534;2022-09-09T16:13:41;20.30;71.10
65046;DHT22;54657;52.022;5.534;2022-09-09T16:16:11;20.30;70.90
65046;DHT22;54657;52.022;5.534;2022-09-09T16:18:45;20.20;71.00
65046;DHT22;54657;52.022;5.534;2022-09-09T16:23:50;20.20;70.70
65046;DHT22;54657;52.022;5.534;2022-09-09T16:26:17;20.20;71.00
65046;DHT22;54657;52.022;5.534;2022-09-09T16:28:43;20.20;70.90
65046;DHT22;54657;52.022;5.534;2022-09-09T16:31:17;20.20;70.90
65046;DHT22;54657;52.022;5.534;2022-09-09T16:33:43;20.20;69.90
65046;DHT22;54657;52.022;5.534;2022-09-09T16:36:11;20.10;71.10
65046;DHT22;54657;52.022;5.534;2022-09-09T16:38:38;20.10;71.30
65046;DHT22;54657;52.022;5.534;2022-09-09T16:41:05;20.10;71.30
65046;DHT22;54657;52.022;5.534;2022-09-09T16:43:32;20.10;71.20
65046;DHT22;54657;52.022;5.534;2022-09-09T16:45:58;20.10;71.30
65046;DHT22;54657;52.022;5.534;2022-09-09T16:48:27;20.00;71.20
65046;DHT22;54657;52.022;5.534;2022-09-09T16:51:07;20.10;71.40
65046;DHT22;54657;52.022;5.534;2022-09-09T16:53:34;20.10;71.10
65046;DHT22;54657;52.022;5.534;2022-09-09T16:56:06;20.10;71.30
65046;DHT22;54657;52.022;5.534;2022-09-09T16:58:32;20.20;71.10
65046;DHT22;54657;52.022;5.534;2022-09-09T17:00:59;20.10;71.30
65046;DHT22;54657;52.022;5.534;2022-09-09T17:03:25;20.10;71.40
65046;DHT22;54657;52.022;5.534;2022-09-09T17:05:51;20.00;71.50
65046;DHT22;54657;52.022;5.534;2022-09-09T17:08:16;20.00;71.50
65046;DHT22;54657;52.022;5.534;2022-09-09T17:10:42;20.00;71.60
65046;DHT22;54657;52.022;5.534;2022-09-09T17:13:08;20.00;71.50
65046;DHT22;54657;52.022;5.534;2022-09-09T17:15:40;20.00;72.10
65046;DHT22;54657;52.022;5.534;2022-09-09T17:18:08;20.10;71.50
65046;DHT22;54657;52.022;5.534;2022-09-09T17:20:36;20.10;71.50
65046;DHT22;54657;52.022;5.534;2022-09-09T17:23:02;20.00;71.50
65046;DHT22;54657;52.022;5.534;2022-09-09T17:25:27;20.10;71.60
65046;DHT22;54657;52.022;5.534;2022-09-09T17:27:53;20.00;71.60
65046;DHT22;54657;52.022;5.534;2022-09-09T17:30:18;20.00;71.70
65046;DHT22;54657;52.022;5.534;2022-09-09T17:32:44;19.90;71.90
65046;DHT22;54657;52.022;5.534;2022-09-09T17:35:12;19.90;72.00
65046;DHT22;54657;52.022;5.534;2022-09-09T17:37:37;19.90;71.90
65046;DHT22;54657;52.022;5.534;2022-09-09T17:40:03;19.90;71.90
65046;DHT22;54657;52.022;5.534;2022-09-09T17:42:29;19.80;71.90
65046;DHT22;54657;52.022;5.534;2022-09-09T17:44:55;19.70;71.90
65046;DHT22;54657;52.022;5.534;2022-09-09T17:47:20;19.60;72.00
65046;DHT22;54657;52.022;5.534;2022-09-09T17:49:46;19.60;72.10
65046;DHT22;54657;52.022;5.534;2022-09-09T17:52:11;19.60;72.70
65046;DHT22;54657;52.022;5.534;2022-09-09T17:54:37;19.60;72.10
65046;DHT22;54657;52.022;5.534;2022-09-09T18:00:36;19.60;72.00
65046;DHT22;54657;52.022;5.534;2022-09-09T18:03:22;19.50;72.10
65046;DHT22;54657;52.022;5.534;2022-09-09T18:06:06;19.60;71.70
65046;DHT22;54657;52.022;5.534;2022-09-09T18:12:03;19.50;71.70
65046;DHT22;54657;52.022;5.534;2022-09-09T18:14:30;19.50;72.00
65046;DHT22;54657;52.022;5.534;2022-09-09T18:16:57;19.50;72.00
65046;DHT22;54657;52.022;5.534;2022-09-09T18:19:27;19.50;71.90
65046;DHT22;54657;52.022;5.534;2022-09-09T18:21:53;19.50;71.90
65046;DHT22;54657;52.022;5.534;2022-09-09T18:24:20;19.40;72.00
65046;DHT22;54657;52.022;5.534;2022-09-09T18:26:47;19.50;71.90